Time;durP1;ratioP1;P1;durP2;ratioP2;P2;SDS_P1;SDS_P2;PMS_P1;PMS_P2;Temp;Humidity;BMP_temperature;BMP_pressure;BME280_temperature;BME280_humidity;BME280_pressure;Samples;Min_cycle;Max_cycle;Signal;HPM_P1;HPM_P2
2023/06/21 00:03:08;;;;;;;14.40;12.90;;;;;;;;;;10404703;28;20500;-75
2023/06/21 00:08:09;;;;;;;17.10;13.88;;;;;;;;;;10412062;28;20207;-74
2023/06/21 00:13:10;;;;;;;16.52;13.13;;;;;;;;;;10410089;28;20215;-74
2023/06/21 00:18:11;;;;;;;23.13;15.10;;;;;;;;;;10411783;28;20222;-75
2023/06/21 00:23:12;;;;;;;19.23;16.20;;;;;;;;;;10412211;28;20782;-75
2023/06/21 00:28:13;;;;;;;17.75;13.98;;;;;;;;;;10420763;28;20207;-74
2023/06/21 00:33:14;;;;;;;18.63;15.18;;;;;;;;;;10419490;28;20222;-73
2023/06/21 00:38:15;;;;;;;20.40;16.67;;;;;;;;;;10403207;28;20620;-74
2023/06/21 00:43:16;;;;;;;24.70;16.38;;;;;;;;;;10408991;28;20249;-77
2023/06/21 00:48:17;;;;;;;17.98;14.45;;;;;;;;;;10421242;28;20866;-76
2023/06/21 00:53:21;;;;;;;22.73;17.45;;;;;;;;;;10434773;28;20268;-75
2023/06/21 00:58:22;;;;;;;6.90;4.43;;;;;;;;;;10416244;28;20216;-74
2023/06/21 01:03:23;;;;;;;2.75;1.85;;;;;;;;;;10414571;28;20595;-76
2023/06/21 01:08:31;;;;;;;2.80;2.60;;;;;;;;;;10441690;28;20214;-77
2023/06/21 01:13:54;;;;;;;2.22;2.10;;;;;;;;;;10419165;28;20226;-75
2023/06/21 01:18:56;;;;;;;2.03;1.92;;;;;;;;;;10431273;28;20211;-74
2023/06/21 01:23:57;;;;;;;2.50;2.30;;;;;;;;;;10415436;28;20218;-75
2023/06/21 01:28:58;;;;;;;1.92;1.75;;;;;;;;;;10415422;28;20216;-76
2023/06/21 01:34:00;;;;;;;1.60;1.60;;;;;;;;;;10411249;28;20951;-78
2023/06/21 01:39:03;;;;;;;2.00;1.92;;;;;;;;;;10410884;28;20839;-76
2023/06/21 01:44:05;;;;;;;1.80;1.38;;;;;;;;;;10413226;28;21049;-76
2023/06/21 01:49:07;;;;;;;7.90;1.70;;;;;;;;;;10413686;28;20214;-75
2023/06/21 01:54:09;;;;;;;1.10;1.10;;;;;;;;;;10407813;28;20225;-77
2023/06/21 01:59:10;;;;;;;0.98;0.98;;;;;;;;;;10412544;28;20997;-77
2023/06/21 02:04:11;;;;;;;1.30;1.30;;;;;;;;;;10399464;28;20234;-75
2023/06/21 02:09:12;;;;;;;0.80;0.80;;;;;;;;;;10430615;28;20229;-76
2023/06/21 02:14:14;;;;;;;1.50;1.40;;;;;;;;;;10399778;28;20296;-76
2023/06/21 02:19:15;;;;;;;6.28;1.63;;;;;;;;;;10397659;28;20260;-77
2023/06/21 02:24:17;;;;;;;1.73;1.70;;;;;;;;;;10430138;28;20219;-75
2023/06/21 02:29:18;;;;;;;1.95;1.85;;;;;;;;;;10422964;28;20223;-76
2023/06/21 02:34:19;;;;;;;1.80;1.70;;;;;;;;;;10411499;28;20214;-77
2023/06/21 02:39:21;;;;;;;4.65;2.22;;;;;;;;;;10415157;28;20211;-77
2023/06/21 02:44:22;;;;;;;2.55;2.45;;;;;;;;;;10417568;28;20221;-77
2023/06/21 02:49:23;;;;;;;1.90;1.80;;;;;;;;;;10408505;28;20256;-76
2023/06/21 02:54:24;;;;;;;3.88;2.97;;;;;;;;;;10414184;28;21200;-76
2023/06/21 02:59:28;;;;;;;3.10;2.70;;;;;;;;;;10414200;28;20237;-77
2023/06/21 03:04:30;;;;;;;3.13;2.70;;;;;;;;;;10411584;28;20700;-77
2023/06/21 03:09:31;;;;;;;2.38;2.28;;;;;;;;;;10409264;28;20214;-76
2023/06/21 03:14:32;;;;;;;2.58;2.33;;;;;;;;;;10408760;28;20218;-76
2023/06/21 03:19:33;;;;;;;2.55;2.30;;;;;;;;;;10408002;28;20214;-77
2023/06/21 03:24:35;;;;;;;2.17;2.08;;;;;;;;;;10411920;28;20719;-76
2023/06/21 03:29:38;;;;;;;3.15;3.05;;;;;;;;;;10410447;28;20204;-76
2023/06/21 03:34:40;;;;;;;3.63;3.33;;;;;;;;;;10416091;28;20230;-76
2023/06/21 03:39:41;;;;;;;3.38;3.17;;;;;;;;;;10413471;28;20764;-77
2023/06/21 03:44:45;;;;;;;3.97;3.58;;;;;;;;;;10415265;28;20293;-76
2023/06/21 03:49:46;;;;;;;7.25;3.83;;;;;;;;;;10414235;28;20213;-77
2023/06/21 03:54:48;;;;;;;5.03;4.53;;;;;;;;;;10415336;28;20353;-77
2023/06/21 03:59:49;;;;;;;3.85;3.33;;;;;;;;;;10394276;28;20202;-76
2023/06/21 04:04:51;;;;;;;4.18;3.40;;;;;;;;;;10399205;28;20222;-77
2023/06/21 04:09:52;;;;;;;3.80;3.60;;;;;;;;;;10416466;28;20217;-77
2023/06/21 04:14:53;;;;;;;3.35;3.17;;;;;;;;;;10416747;28;20787;-76
2023/06/21 04:19:58;;;;;;;3.97;3.75;;;;;;;;;;10407318;28;20217;-77
2023/06/21 04:24:59;;;;;;;3.70;3.17;;;;;;;;;;10408292;28;20215;-78
2023/06/21 04:30:00;;;;;;;4.47;3.05;;;;;;;;;;10415684;28;20723;-77
2023/06/21 04:35:01;;;;;;;3.22;3.08;;;;;;;;;;10413873;28;20221;-76
2023/06/21 04:40:02;;;;;;;4.30;3.65;;;;;;;;;;10410019;28;20211;-77
2023/06/21 04:45:03;;;;;;;4.40;3.20;;;;;;;;;;10405871;28;20250;-77
2023/06/21 04:50:05;;;;;;;4.10;3.80;;;;;;;;;;10408593;28;20237;-77
2023/06/21 04:55:07;;;;;;;5.72;5.22;;;;;;;;;;10408384;28;20214;-77
2023/06/21 05:00:09;;;;;;;5.95;5.43;;;;;;;;;;10402164;28;20187;-77
2023/06/21 05:05:10;;;;;;;8.13;5.10;;;;;;;;;;10400350;28;20594;-75
2023/06/21 05:10:11;;;;;;;4.75;4.35;;;;;;;;;;10401635;28;20197;-76
2023/06/21 05:15:12;;;;;;;5.50;5.00;;;;;;;;;;10443526;28;20575;-76
2023/06/21 05:20:13;;;;;;;6.20;5.60;;;;;;;;;;10410642;28;20191;-77
2023/06/21 05:25:14;;;;;;;6.90;5.85;;;;;;;;;;10413041;28;21571;-77
2023/06/21 05:30:15;;;;;;;5.95;5.53;;;;;;;;;;10407551;28;20192;-76
2023/06/21 05:35:16;;;;;;;6.85;6.18;;;;;;;;;;10408810;28;20202;-76
2023/06/21 05:40:17;;;;;;;7.97;6.10;;;;;;;;;;10412278;28;20239;-76
2023/06/21 05:45:20;;;;;;;7.40;6.63;;;;;;;;;;10397524;28;20245;-75
2023/06/21 05:50:21;;;;;;;6.03;5.55;;;;;;;;;;10438316;28;20213;-76
2023/06/21 05:55:22;;;;;;;5.88;5.50;;;;;;;;;;10404254;28;20809;-77
2023/06/21 06:00:23;;;;;;;6.20;4.30;;;;;;;;;;10413057;28;20217;-76
2023/06/21 06:05:24;;;;;;;6.22;3.92;;;;;;;;;;10416507;28;20315;-77
2023/06/21 06:10:26;;;;;;;4.57;4.38;;;;;;;;;;10420524;28;20207;-77
2023/06/21 06:15:27;;;;;;;3.30;3.10;;;;;;;;;;10408014;28;20214;-77
2023/06/21 06:20:29;;;;;;;6.05;3.45;;;;;;;;;;10412381;28;20218;-76
2023/06/21 06:25:30;;;;;;;5.35;3.20;;;;;;;;;;10395121;28;20746;-76
2023/06/21 06:30:31;;;;;;;3.33;3.13;;;;;;;;;;10406856;28;20210;-76
2023/06/21 06:35:32;;;;;;;3.00;2.90;;;;;;;;;;10391312;28;20215;-75
2023/06/21 06:40:33;;;;;;;3.15;3.00;;;;;;;;;;10404895;28;20272;-77
2023/06/21 06:45:34;;;;;;;2.80;2.70;;;;;;;;;;10408626;28;20720;-74
2023/06/21 06:50:38;;;;;;;2.45;2.35;;;;;;;;;;10407168;28;20779;-74
2023/06/21 06:55:39;;;;;;;2.55;2.53;;;;;;;;;;10405973;28;20211;-73
2023/06/21 07:00:40;;;;;;;3.20;3.10;;;;;;;;;;10407400;28;20207;-75
2023/06/21 07:05:46;;;;;;;3.63;3.30;;;;;;;;;;10424878;28;20222;-74
2023/06/21 07:10:47;;;;;;;3.10;2.95;;;;;;;;;;10411246;28;20218;-73
2023/06/21 07:15:48;;;;;;;3.03;2.92;;;;;;;;;;10399969;28;20229;-74
2023/06/21 07:20:49;;;;;;;3.50;3.30;;;;;;;;;;10414092;28;20219;-74
2023/06/21 07:25:50;;;;;;;3.90;3.80;;;;;;;;;;10405956;28;20226;-75
2023/06/21 07:30:51;;;;;;;3.35;3.25;;;;;;;;;;10403160;28;20218;-74
2023/06/21 07:35:52;;;;;;;3.58;3.38;;;;;;;;;;10404968;28;20219;-73
2023/06/21 07:40:53;;;;;;;3.30;3.10;;;;;;;;;;10439364;28;20218;-73
2023/06/21 07:45:54;;;;;;;3.97;3.80;;;;;;;;;;10403200;28;20219;-74
2023/06/21 07:50:55;;;;;;;3.67;3.55;;;;;;;;;;10401298;28;20340;-74
2023/06/21 07:55:56;;;;;;;4.55;4.25;;;;;;;;;;10396234;28;20276;-73
2023/06/21 08:00:57;;;;;;;3.35;3.17;;;;;;;;;;10387590;28;20301;-74
2023/06/21 08:05:58;;;;;;;2.85;2.70;;;;;;;;;;10396089;28;20222;-73
2023/06/21 08:10:59;;;;;;;3.38;3.28;;;;;;;;;;10394341;28;20740;-74
2023/06/21 08:16:00;;;;;;;2.58;2.38;;;;;;;;;;10401207;28;20242;-74
2023/06/21 08:21:03;;;;;;;4.38;2.50;;;;;;;;;;10409232;28;20301;-74
2023/06/21 08:26:04;;;;;;;2.90;2.80;;;;;;;;;;10403843;28;20249;-74
2023/06/21 08:31:05;;;;;;;3.05;2.95;;;;;;;;;;10421258;28;20214;-76
2023/06/21 08:36:07;;;;;;;2.63;2.42;;;;;;;;;;10413632;28;20223;-76
2023/06/21 08:41:08;;;;;;;4.55;4.30;;;;;;;;;;10398781;28;20222;-75
2023/06/21 08:46:09;;;;;;;4.53;4.22;;;;;;;;;;10398435;28;20341;-75
2023/06/21 08:51:10;;;;;;;3.22;3.13;;;;;;;;;;10402098;28;20237;-75
2023/06/21 08:56:14;;;;;;;2.75;2.55;;;;;;;;;;10396315;28;20224;-76
2023/06/21 09:01:17;;;;;;;9.02;2.83;;;;;;;;;;10407972;28;20219;-75
2023/06/21 09:06:22;;;;;;;2.75;2.65;;;;;;;;;;10404205;28;20219;-76
2023/06/21 09:11:24;;;;;;;2.42;2.33;;;;;;;;;;10403816;28;20795;-76
2023/06/21 09:16:25;;;;;;;4.53;1.83;;;;;;;;;;10413413;28;20298;-76
2023/06/21 09:21:27;;;;;;;2.92;2.83;;;;;;;;;;10408453;28;20851;-76
2023/06/21 09:26:28;;;;;;;2.95;2.85;;;;;;;;;;10403328;28;20605;-75
2023/06/21 09:31:29;;;;;;;3.38;3.28;;;;;;;;;;10406256;28;20257;-76
2023/06/21 09:36:30;;;;;;;3.80;3.70;;;;;;;;;;10408769;28;20218;-78
2023/06/21 09:41:31;;;;;;;3.08;3.08;;;;;;;;;;10421966;28;20752;-76
2023/06/21 09:46:32;;;;;;;3.67;3.47;;;;;;;;;;10414155;28;20985;-75
2023/06/21 09:51:33;;;;;;;3.67;3.47;;;;;;;;;;10429597;28;20283;-78
2023/06/21 09:56:35;;;;;;;3.45;3.15;;;;;;;;;;10419598;28;20215;-74
2023/06/21 10:01:37;;;;;;;4.43;4.25;;;;;;;;;;10406446;28;20239;-76
2023/06/21 10:06:38;;;;;;;3.40;3.30;;;;;;;;;;10405752;28;20211;-75
2023/06/21 10:11:40;;;;;;;3.58;3.47;;;;;;;;;;10399293;28;20874;-76
2023/06/21 10:16:41;;;;;;;3.20;3.15;;;;;;;;;;10413671;28;20230;-74
2023/06/21 10:21:43;;;;;;;2.97;2.90;;;;;;;;;;10421116;28;20293;-75
2023/06/21 10:26:44;;;;;;;3.92;3.72;;;;;;;;;;10413309;28;20222;-74
2023/06/21 10:31:49;;;;;;;3.28;3.17;;;;;;;;;;10410071;28;20206;-76
2023/06/21 10:36:51;;;;;;;3.63;3.53;;;;;;;;;;10408656;28;20215;-75
2023/06/21 10:41:52;;;;;;;3.28;3.17;;;;;;;;;;10415915;28;20770;-76
2023/06/21 10:46:54;;;;;;;3.55;3.33;;;;;;;;;;10354383;28;20825;-78
2023/06/21 10:51:56;;;;;;;3.90;3.08;;;;;;;;;;10291760;28;20785;-79
2023/06/21 10:56:57;;;;;;;2.58;2.47;;;;;;;;;;10282684;28;20461;-77
2023/06/21 11:01:58;;;;;;;3.03;2.92;;;;;;;;;;10292638;28;20230;-79
2023/06/21 11:07:00;;;;;;;3.40;3.20;;;;;;;;;;10267630;28;20313;-78
2023/06/21 11:12:07;;;;;;;2.60;2.50;;;;;;;;;;10274685;28;20222;-80
2023/06/21 11:17:12;;;;;;;2.55;2.38;;;;;;;;;;10273751;28;20215;-78
2023/06/21 11:22:26;;;;;;;1.98;1.98;;;;;;;;;;10272817;28;20222;-79
2023/06/21 11:27:27;;;;;;;4.97;2.10;;;;;;;;;;10283336;28;20229;-78
2023/06/21 11:32:29;;;;;;;1.85;1.75;;;;;;;;;;10279851;28;20212;-78
2023/06/21 11:37:44;;;;;;;2.20;2.10;;;;;;;;;;10279548;28;20235;-77
2023/06/21 11:42:47;;;;;;;1.85;1.75;;;;;;;;;;10297185;28;20230;-77
2023/06/21 11:47:59;;;;;;;2.88;1.95;;;;;;;;;;10309317;28;20679;-78
2023/06/21 11:53:12;;;;;;;3.15;1.95;;;;;;;;;;10317885;28;21887;-77
2023/06/21 11:58:13;;;;;;;1.60;1.50;;;;;;;;;;10318622;28;20226;-78
2023/06/21 12:03:15;;;;;;;1.77;1.77;;;;;;;;;;10302636;28;22861;-79
2023/06/21 12:08:20;;;;;;;1.50;1.50;;;;;;;;;;10291797;28;20215;-80
2023/06/21 12:13:21;;;;;;;1.95;1.50;;;;;;;;;;10290765;28;20230;-78
2023/06/21 12:18:23;;;;;;;1.80;1.80;;;;;;;;;;10270649;28;21329;-77
2023/06/21 12:23:24;;;;;;;2.10;1.40;;;;;;;;;;10295631;28;21177;-77
2023/06/21 12:28:25;;;;;;;2.03;1.92;;;;;;;;;;10274272;28;20223;-79
2023/06/21 12:33:27;;;;;;;1.52;1.52;;;;;;;;;;10296052;28;20308;-77
2023/06/21 12:38:28;;;;;;;1.70;1.70;;;;;;;;;;10305545;28;20343;-77
2023/06/21 12:43:39;;;;;;;1.70;1.70;;;;;;;;;;10319477;28;20219;-77
2023/06/21 12:48:47;;;;;;;1.85;1.85;;;;;;;;;;10276299;28;20211;-77
2023/06/21 12:53:53;;;;;;;2.10;2.00;;;;;;;;;;10296273;28;20220;-75
2023/06/21 12:58:54;;;;;;;1.95;1.92;;;;;;;;;;10293646;28;20215;-77
2023/06/21 13:03:56;;;;;;;2.25;1.88;;;;;;;;;;10299703;28;20234;-79
2023/06/21 13:08:57;;;;;;;2.33;2.17;;;;;;;;;;10276521;28;22536;-77
2023/06/21 13:13:59;;;;;;;2.47;2.38;;;;;;;;;;10288229;28;20225;-77
2023/06/21 13:19:00;;;;;;;2.28;2.28;;;;;;;;;;10292219;28;20320;-78
2023/06/21 13:24:02;;;;;;;2.45;2.35;;;;;;;;;;10298796;28;21370;-80
2023/06/21 13:29:03;;;;;;;2.30;2.30;;;;;;;;;;10299336;28;20217;-78
2023/06/21 13:34:04;;;;;;;2.47;2.38;;;;;;;;;;10289022;28;20230;-78
2023/06/21 13:39:05;;;;;;;2.38;2.28;;;;;;;;;;10286141;28;23533;-79
2023/06/21 13:44:06;;;;;;;2.60;2.50;;;;;;;;;;10299614;28;20215;-79
2023/06/21 13:49:07;;;;;;;2.28;2.28;;;;;;;;;;10300238;28;20858;-78
2023/06/21 13:54:08;;;;;;;2.10;2.10;;;;;;;;;;10266350;28;20219;-78
2023/06/21 13:59:09;;;;;;;2.28;2.10;;;;;;;;;;10288327;28;20686;-78
2023/06/21 14:04:10;;;;;;;2.75;2.58;;;;;;;;;;10296841;28;21413;-81
2023/06/21 14:09:12;;;;;;;2.95;2.78;;;;;;;;;;10282087;28;20298;-78
2023/06/21 14:14:13;;;;;;;2.65;2.55;;;;;;;;;;10275406;28;20227;-80
2023/06/21 14:19:14;;;;;;;2.55;2.50;;;;;;;;;;10285286;28;20223;-76
2023/06/21 14:24:15;;;;;;;3.03;2.50;;;;;;;;;;10278760;28;20226;-77
2023/06/21 14:29:16;;;;;;;2.42;2.38;;;;;;;;;;10287151;28;22158;-78
2023/06/21 14:34:17;;;;;;;3.65;2.88;;;;;;;;;;10295669;28;20225;-77
2023/06/21 14:39:18;;;;;;;2.45;2.42;;;;;;;;;;10291927;28;21464;-77
2023/06/21 14:44:19;;;;;;;2.72;2.53;;;;;;;;;;10270942;28;20232;-75
2023/06/21 14:49:20;;;;;;;2.33;2.13;;;;;;;;;;10255623;28;20334;-79
2023/06/21 14:54:21;;;;;;;2.88;2.78;;;;;;;;;;10237395;28;20227;-75
2023/06/21 14:59:23;;;;;;;2.30;2.25;;;;;;;;;;10248369;28;21899;-77
2023/06/21 15:04:24;;;;;;;2.78;2.67;;;;;;;;;;10255963;28;20241;-75
2023/06/21 15:09:25;;;;;;;3.10;3.00;;;;;;;;;;10215201;28;20412;-76
2023/06/21 15:14:26;;;;;;;2.72;2.55;;;;;;;;;;10246548;28;20223;-77
2023/06/21 15:19:28;;;;;;;2.78;2.70;;;;;;;;;;10239021;28;20224;-77
2023/06/21 15:24:29;;;;;;;2.85;2.75;;;;;;;;;;10234420;28;20255;-76
2023/06/21 15:29:30;;;;;;;3.20;3.00;;;;;;;;;;10236024;28;20784;-76
2023/06/21 15:34:30;;;;;;;3.20;2.97;;;;;;;;;;10230518;28;20261;-78
2023/06/21 15:39:32;;;;;;;2.67;2.58;;;;;;;;;;10244299;28;20262;-81
2023/06/21 15:44:33;;;;;;;3.00;2.95;;;;;;;;;;10239173;28;20472;-80
2023/06/21 15:49:34;;;;;;;2.72;2.63;;;;;;;;;;10232026;28;20912;-78
2023/06/21 15:54:35;;;;;;;3.60;3.50;;;;;;;;;;10242395;28;20219;-78
2023/06/21 15:59:36;;;;;;;3.20;3.00;;;;;;;;;;10248239;28;21239;-80
2023/06/21 16:04:37;;;;;;;3.40;3.30;;;;;;;;;;10245340;28;20222;-78
2023/06/21 16:09:58;;;;;;;2.80;2.70;;;;;;;;;;10241823;27;20570;-78
2023/06/21 16:14:59;;;;;;;3.40;3.30;;;;;;;;;;10218907;28;20217;-78
2023/06/21 16:20:00;;;;;;;3.42;3.33;;;;;;;;;;10196268;28;24648;-81
2023/06/21 16:25:01;;;;;;;3.50;3.30;;;;;;;;;;10198341;28;20364;-77
2023/06/21 16:30:02;;;;;;;3.80;3.50;;;;;;;;;;10197780;28;21824;-78
2023/06/21 16:35:04;;;;;;;3.22;3.08;;;;;;;;;;10195006;28;20209;-76
2023/06/21 16:40:05;;;;;;;3.47;3.20;;;;;;;;;;10148420;28;20213;-77
2023/06/21 16:45:07;;;;;;;3.60;3.28;;;;;;;;;;10175418;28;20919;-77
2023/06/21 16:50:08;;;;;;;3.40;3.30;;;;;;;;;;10186172;28;20184;-78
2023/06/21 16:55:09;;;;;;;3.22;3.13;;;;;;;;;;10191365;28;21002;-75
2023/06/21 17:00:11;;;;;;;3.65;3.55;;;;;;;;;;10166185;28;21532;-80
2023/06/21 17:05:12;;;;;;;2.70;2.70;;;;;;;;;;10199106;28;20832;-78
2023/06/21 17:10:13;;;;;;;3.22;3.13;;;;;;;;;;10180323;28;20291;-76
2023/06/21 17:15:14;;;;;;;3.10;3.00;;;;;;;;;;10170195;28;20975;-78
2023/06/21 17:20:15;;;;;;;2.63;2.53;;;;;;;;;;10154953;28;20280;-76
2023/06/21 17:25:16;;;;;;;2.88;2.78;;;;;;;;;;10160014;28;20249;-77
2023/06/21 17:30:17;;;;;;;3.03;2.92;;;;;;;;;;10173997;28;20185;-76
2023/06/21 17:35:19;;;;;;;3.08;3.05;;;;;;;;;;10167097;28;20205;-79
2023/06/21 17:40:19;;;;;;;3.13;3.03;;;;;;;;;;10179548;28;20936;-77
2023/06/21 17:45:20;;;;;;;3.22;3.05;;;;;;;;;;10179097;28;20236;-76
2023/06/21 17:50:22;;;;;;;2.92;2.92;;;;;;;;;;10188199;28;20217;-76
2023/06/21 17:55:23;;;;;;;3.00;2.90;;;;;;;;;;10176505;28;20221;-76
2023/06/21 18:00:24;;;;;;;2.85;2.75;;;;;;;;;;10178950;28;20458;-77
2023/06/21 18:05:25;;;;;;;2.95;2.85;;;;;;;;;;10179960;28;20631;-77
2023/06/21 18:10:26;;;;;;;2.95;2.85;;;;;;;;;;10195934;28;20240;-78
2023/06/21 18:15:27;;;;;;;3.63;3.33;;;;;;;;;;10195121;28;20224;-79
2023/06/21 18:20:28;;;;;;;2.58;2.50;;;;;;;;;;10179359;28;20209;-78
2023/06/21 18:25:29;;;;;;;3.95;3.25;;;;;;;;;;10186006;28;20259;-78
2023/06/21 18:30:30;;;;;;;2.80;2.70;;;;;;;;;;10168750;28;20524;-79
2023/06/21 18:35:31;;;;;;;3.63;3.30;;;;;;;;;;10164094;28;20249;-78
2023/06/21 18:40:32;;;;;;;2.58;2.58;;;;;;;;;;10157581;28;21747;-76
2023/06/21 18:45:35;;;;;;;3.28;3.17;;;;;;;;;;10145687;28;20272;-77
2023/06/21 18:50:36;;;;;;;2.75;2.55;;;;;;;;;;10155156;28;20651;-76
2023/06/21 18:55:37;;;;;;;4.00;2.60;;;;;;;;;;10180550;28;20290;-78
2023/06/21 19:00:38;;;;;;;2.67;2.67;;;;;;;;;;10180578;28;20221;-77
2023/06/21 19:05:39;;;;;;;2.88;2.70;;;;;;;;;;10180276;28;20230;-78
2023/06/21 19:10:40;;;;;;;2.50;2.33;;;;;;;;;;10179454;28;20407;-79
2023/06/21 19:15:41;;;;;;;2.58;2.38;;;;;;;;;;10166591;28;20229;-77
2023/06/21 19:20:42;;;;;;;2.38;2.38;;;;;;;;;;10157412;28;21901;-77
2023/06/21 19:25:43;;;;;;;2.53;2.30;;;;;;;;;;10162928;28;20315;-76
2023/06/21 19:30:44;;;;;;;2.30;2.30;;;;;;;;;;10170554;28;20711;-77
2023/06/21 19:35:45;;;;;;;2.20;2.10;;;;;;;;;;10164862;28;20216;-76
2023/06/21 19:40:46;;;;;;;3.00;2.80;;;;;;;;;;10165816;28;20220;-76
2023/06/21 19:45:47;;;;;;;2.30;2.15;;;;;;;;;;10155766;28;20217;-75
2023/06/21 19:50:48;;;;;;;3.45;3.35;;;;;;;;;;10159854;28;20247;-78
2023/06/21 19:55:49;;;;;;;3.53;3.40;;;;;;;;;;10160471;28;20229;-77
2023/06/21 20:00:51;;;;;;;4.20;4.00;;;;;;;;;;10163163;28;24289;-77
2023/06/21 20:05:52;;;;;;;3.58;3.45;;;;;;;;;;10167376;28;20229;-79
2023/06/21 20:10:53;;;;;;;4.40;4.07;;;;;;;;;;10184866;28;20256;-76
2023/06/21 20:15:54;;;;;;;3.40;3.20;;;;;;;;;;10180055;28;20334;-77
2023/06/21 20:20:55;;;;;;;3.08;2.97;;;;;;;;;;10164291;28;20219;-77
2023/06/21 20:25:56;;;;;;;3.08;2.88;;;;;;;;;;10179952;28;20895;-77
2023/06/21 20:30:57;;;;;;;3.20;3.10;;;;;;;;;;10137844;28;20605;-77
2023/06/21 20:35:58;;;;;;;3.22;2.65;;;;;;;;;;10167298;28;20239;-77
2023/06/21 20:41:02;;;;;;;3.38;2.70;;;;;;;;;;10154312;28;20228;-79
2023/06/21 20:46:03;;;;;;;2.47;2.47;;;;;;;;;;10165650;28;22257;-77
2023/06/21 20:51:05;;;;;;;2.90;2.80;;;;;;;;;;10164203;28;20232;-76
2023/06/21 20:56:07;;;;;;;3.67;2.85;;;;;;;;;;10189188;28;20821;-75
2023/06/21 21:01:13;;;;;;;3.00;2.90;;;;;;;;;;10185847;28;20208;-77
2023/06/21 21:06:14;;;;;;;3.10;3.00;;;;;;;;;;10183097;28;22338;-79
2023/06/21 21:11:15;;;;;;;2.83;2.72;;;;;;;;;;10178824;28;20877;-77
2023/06/21 21:16:16;;;;;;;3.28;3.10;;;;;;;;;;10177734;28;20228;-77
2023/06/21 21:21:17;;;;;;;3.25;3.15;;;;;;;;;;10180651;28;20349;-78
2023/06/21 21:26:18;;;;;;;3.33;3.17;;;;;;;;;;10163991;28;20839;-78
2023/06/21 21:31:19;;;;;;;3.38;3.28;;;;;;;;;;10169286;28;20243;-77
2023/06/21 21:36:20;;;;;;;3.90;3.60;;;;;;;;;;10175519;28;21366;-77
2023/06/21 21:41:21;;;;;;;3.83;3.63;;;;;;;;;;10162721;28;20313;-77
2023/06/21 21:46:22;;;;;;;3.25;3.15;;;;;;;;;;10153792;28;20260;-78
2023/06/21 21:51:24;;;;;;;3.38;3.28;;;;;;;;;;10159224;28;20225;-77
2023/06/21 21:56:25;;;;;;;3.30;3.15;;;;;;;;;;10136916;28;20582;-79
2023/06/21 22:01:26;;;;;;;3.38;3.13;;;;;;;;;;10156322;28;20244;-77
2023/06/21 22:06:27;;;;;;;3.92;3.38;;;;;;;;;;10160061;28;20306;-78
2023/06/21 22:11:33;;;;;;;3.83;3.60;;;;;;;;;;10173143;28;20225;-76
2023/06/21 22:16:34;;;;;;;3.50;3.40;;;;;;;;;;10177784;28;20437;-75
2023/06/21 22:21:36;;;;;;;4.15;3.90;;;;;;;;;;10170587;28;20224;-76
2023/06/21 22:26:37;;;;;;;3.63;3.33;;;;;;;;;;10170638;28;20270;-77
2023/06/21 22:31:39;;;;;;;4.47;4.28;;;;;;;;;;10167056;28;20251;-77
2023/06/21 22:36:40;;;;;;;3.83;3.72;;;;;;;;;;10181005;28;20269;-76
2023/06/21 22:41:41;;;;;;;4.20;3.90;;;;;;;;;;10183982;28;20351;-76
2023/06/21 22:46:42;;;;;;;4.72;4.43;;;;;;;;;;10160144;28;20968;-76
2023/06/21 22:51:44;;;;;;;3.92;3.67;;;;;;;;;;10168868;28;20223;-77
2023/06/21 22:56:46;;;;;;;3.92;3.67;;;;;;;;;;10177017;28;20247;-77
2023/06/21 23:01:48;;;;;;;3.90;3.70;;;;;;;;;;10160855;28;20315;-76
2023/06/21 23:06:49;;;;;;;4.30;3.95;;;;;;;;;;10153501;28;20236;-76
2023/06/21 23:11:51;;;;;;;4.03;3.50;;;;;;;;;;10153951;28;20340;-77
2023/06/21 23:16:52;;;;;;;4.45;4.10;;;;;;;;;;10160896;28;21033;-76
2023/06/21 23:21:53;;;;;;;4.10;3.88;;;;;;;;;;10159734;28;20220;-76
2023/06/21 23:26:54;;;;;;;4.68;4.38;;;;;;;;;;10162483;28;20223;-77
2023/06/21 23:31:55;;;;;;;4.43;4.20;;;;;;;;;;10167438;28;21734;-75
2023/06/21 23:36:58;;;;;;;4.90;4.15;;;;;;;;;;10166000;28;20217;-75
2023/06/21 23:42:00;;;;;;;3.88;3.70;;;;;;;;;;10168360;28;20236;-76
2023/06/21 23:47:01;;;;;;;4.22;4.03;;;;;;;;;;10166084;28;20891;-77
2023/06/21 23:52:02;;;;;;;5.47;4.72;;;;;;;;;;10187640;28;20699;-79
2023/06/21 23:57:03;;;;;;;4.93;4.53;;;;;;;;;;10165194;28;20982;-79
